Time;durP1;ratioP1;P1;durP2;ratioP2;P2;SDS_P1;SDS_P2;PMS_P1;PMS_P2;Temp;Humidity;BMP_temperature;BMP_pressure;BME280_temperature;BME280_humidity;BME280_pressure;Samples;Min_cycle;Max_cycle;Signal;HPM_P1;HPM_P2
2022/07/15 05:33:31;;;;;;;;;4.75;4.75;;;;;19.73;46.16;102111.00;2395102;28;45325;-87
2022/07/15 05:34:41;;;;;;;;;5.00;5.00;;;;;19.73;46.19;102106.50;2405917;28;45328;-85
2022/07/15 05:35:51;;;;;;;;;5.00;5.00;;;;;19.75;46.11;102112.66;2407464;28;45257;-86
2022/07/15 05:37:02;;;;;;;;;5.00;5.00;;;;;19.77;46.17;102115.22;2410689;28;46433;-83
2022/07/15 05:38:12;;;;;;;;;7.25;3.75;;;;;19.81;46.48;102113.25;2405724;28;45494;-84
2022/07/15 05:39:23;;;;;;;;;3.50;2.75;;;;;19.85;46.30;102125.53;2405943;28;46252;-81
2022/07/15 05:40:34;;;;;;;;;4.25;4.25;;;;;19.88;46.49;102117.34;2404657;28;44810;-81
2022/07/15 05:41:44;;;;;;;;;6.00;6.00;;;;;19.92;46.30;102124.25;2403302;28;45218;-82
2022/07/15 05:42:55;;;;;;;;;7.00;4.75;;;;;19.96;45.99;102125.81;2401031;28;45305;-82
2022/07/15 05:44:05;;;;;;;;;5.75;5.75;;;;;20.01;46.16;102121.13;2391548;28;47523;-82
2022/07/15 05:45:16;;;;;;;;;4.00;2.00;;;;;20.04;46.21;102129.91;2405816;28;45297;-81
2022/07/15 05:46:27;;;;;;;;;7.00;4.50;;;;;20.07;46.38;102122.63;2409067;28;46118;-81
2022/07/15 05:47:37;;;;;;;;;5.50;3.75;;;;;20.12;46.20;102125.09;2411221;28;45421;-81
2022/07/15 05:48:47;;;;;;;;;6.25;4.25;;;;;20.18;46.32;102132.75;2402970;28;46122;-82
2022/07/15 05:49:58;;;;;;;;;5.25;5.00;;;;;20.25;46.35;102133.28;2405172;28;44747;-81
2022/07/15 05:51:08;;;;;;;;;2.00;2.00;;;;;20.33;46.40;102130.22;2402717;28;48014;-81
2022/07/15 05:52:18;;;;;;;;;4.00;4.00;;;;;20.42;46.30;102135.06;2396020;28;44600;-81
2022/07/15 05:53:30;;;;;;;;;5.00;3.50;;;;;20.49;45.73;102132.09;2391379;28;47401;-82
2022/07/15 05:54:41;;;;;;;;;3.00;3.00;;;;;20.54;45.95;102135.38;2396242;28;44802;-82
2022/07/15 05:55:52;;;;;;;;;6.00;5.75;;;;;20.61;45.71;102135.91;2403004;28;45448;-82
2022/07/15 05:57:03;;;;;;;;;4.25;4.00;;;;;20.65;45.59;102135.66;2408784;28;44620;-82
2022/07/15 05:58:13;;;;;;;;;8.75;5.50;;;;;20.72;45.89;102130.84;2404235;28;45426;-82
2022/07/15 05:59:24;;;;;;;;;6.00;5.25;;;;;20.76;45.34;102134.22;2407922;28;45209;-82
2022/07/15 06:00:35;;;;;;;;;5.50;4.75;;;;;20.79;45.42;102142.91;2408093;28;46557;-82
2022/07/15 06:01:46;;;;;;;;;5.00;5.00;;;;;20.77;45.63;102133.25;2397265;28;45252;-82
2022/07/15 06:02:56;;;;;;;;;4.25;3.25;;;;;20.75;45.72;102138.69;2394573;28;45431;-82
2022/07/15 06:04:07;;;;;;;;;5.00;4.00;;;;;20.76;45.26;102137.75;2402608;28;44865;-82
2022/07/15 06:05:17;;;;;;;;;4.00;4.00;;;;;20.76;45.42;102139.56;2404581;28;45722;-82
2022/07/15 06:06:28;;;;;;;;;7.00;5.25;;;;;20.76;45.31;102144.91;2408988;28;45458;-82
2022/07/15 06:07:38;;;;;;;;;4.75;3.00;;;;;20.76;45.33;102137.75;2397757;28;45503;-82
2022/07/15 06:08:48;;;;;;;;;5.00;5.00;;;;;20.75;45.45;102143.16;2404120;28;45770;-82
2022/07/15 06:09:59;;;;;;;;;6.00;5.75;;;;;20.73;45.42;102145.06;2408308;28;46361;-82
2022/07/15 06:11:11;;;;;;;;;7.00;5.00;;;;;20.68;45.42;102142.66;2403816;28;45340;-82
2022/07/15 06:12:21;;;;;;;;;5.00;4.50;;;;;20.65;45.79;102143.66;2406633;28;46348;-82
2022/07/15 06:13:32;;;;;;;;;6.75;5.50;;;;;20.64;45.75;102146.44;2413061;28;44560;-82
2022/07/15 06:14:42;;;;;;;;;7.25;4.75;;;;;20.63;45.99;102145.56;2412736;28;45269;-82
2022/07/15 06:15:53;;;;;;;;;4.50;4.50;;;;;20.60;45.85;102140.38;2406963;28;45212;-82
2022/07/15 06:17:03;;;;;;;;;6.00;6.00;;;;;20.63;46.17;102152.72;2405084;28;45401;-83
2022/07/15 06:18:14;;;;;;;;;7.00;5.75;;;;;20.65;46.32;102145.47;2406280;28;44719;-83
2022/07/15 06:19:24;;;;;;;;;6.50;5.50;;;;;20.64;45.96;102139.25;2406044;28;46323;-83
2022/07/15 06:20:35;;;;;;;;;7.00;4.50;;;;;20.71;46.29;102138.94;2405144;28;45380;-82
2022/07/15 06:21:45;;;;;;;;;5.75;4.00;;;;;20.75;45.82;102135.16;2410461;28;45429;-83
2022/07/15 06:22:55;;;;;;;;;5.25;4.00;;;;;20.84;45.86;102141.81;2407676;28;45599;-82
2022/07/15 06:24:06;;;;;;;;;5.00;4.25;;;;;20.92;45.78;102147.59;2404272;28;47349;-82
2022/07/15 06:25:16;;;;;;;;;7.00;5.00;;;;;20.98;45.68;102141.91;2401779;28;45313;-82
2022/07/15 06:26:27;;;;;;;;;4.00;4.00;;;;;21.07;45.68;102145.91;2402076;28;46027;-82
2022/07/15 06:27:37;;;;;;;;;6.00;3.50;;;;;21.17;45.76;102146.25;2402658;28;44700;-82
2022/07/15 06:28:49;;;;;;;;;7.50;5.00;;;;;21.25;45.41;102149.38;2408857;28;45376;-82
2022/07/15 06:29:59;;;;;;;;;4.25;3.75;;;;;21.35;45.24;102141.69;2392439;28;45413;-82
2022/07/15 06:31:10;;;;;;;;;7.00;4.25;;;;;21.42;45.35;102146.69;2388473;28;46987;-82
2022/07/15 06:32:20;;;;;;;;;6.00;5.00;;;;;21.50;45.06;102131.06;2397478;28;46399;-81
2022/07/15 06:33:31;;;;;;;;;5.75;4.50;;;;;21.53;44.41;102132.69;2409589;28;45332;-82
2022/07/15 06:34:41;;;;;;;;;7.00;5.00;;;;;21.57;44.67;102147.63;2406567;28;45306;-83
2022/07/15 06:35:52;;;;;;;;;4.50;4.50;;;;;21.60;44.66;102144.75;2405020;28;46988;-83
2022/07/15 06:37:02;;;;;;;;;5.25;5.25;;;;;21.63;44.40;102151.75;2404642;28;44664;-82
2022/07/15 06:38:12;;;;;;;;;7.00;5.00;;;;;21.67;44.28;102147.94;2411473;28;45306;-82
2022/07/15 06:39:23;;;;;;;;;7.00;4.25;;;;;21.67;44.22;102147.94;2407790;28;45218;-82
2022/07/15 06:40:33;;;;;;;;;4.00;4.00;;;;;21.62;44.31;102142.00;2406455;28;45357;-83
2022/07/15 06:41:43;;;;;;;;;7.50;6.00;;;;;21.55;43.87;102150.38;2403478;28;45590;-83
2022/07/15 06:42:54;;;;;;;;;5.00;5.00;;;;;21.48;44.19;102157.03;2410371;28;46444;-82
2022/07/15 06:44:05;;;;;;;;;4.25;4.25;;;;;21.41;44.49;102155.66;2406227;28;44750;-82
2022/07/15 06:45:16;;;;;;;;;4.25;4.25;;;;;21.34;44.75;102163.16;2409883;28;46573;-82
2022/07/15 06:46:26;;;;;;;;;4.75;4.00;;;;;21.33;45.13;102164.13;2411059;28;45237;-82
2022/07/15 06:47:41;;;;;;;;;7.00;5.25;;;;;21.32;45.49;102165.06;2410703;28;45342;-82
2022/07/15 06:48:51;;;;;;;;;6.50;5.00;;;;;21.31;44.84;102171.38;2409295;28;45297;-82
2022/07/15 06:50:02;;;;;;;;;6.50;6.50;;;;;21.29;45.13;102174.13;2402459;28;46299;-82
2022/07/15 06:51:12;;;;;;;;;7.00;6.50;;;;;21.27;44.88;102165.31;2401990;28;45535;-81
2022/07/15 06:52:23;;;;;;;;;6.00;6.00;;;;;21.23;45.14;102171.78;2400063;28;46478;-82
2022/07/15 06:53:33;;;;;;;;;6.50;5.75;;;;;21.20;45.29;102162.13;2399951;28;45443;-83
2022/07/15 06:54:44;;;;;;;;;6.75;6.25;;;;;21.17;45.16;102166.78;2399106;28;45408;-81
2022/07/15 06:55:54;;;;;;;;;5.50;4.25;;;;;21.13;45.31;102163.44;2401217;28;45336;-82
2022/07/15 06:57:05;;;;;;;;;5.75;5.75;;;;;21.11;45.35;102163.50;2400779;28;46403;-82
2022/07/15 06:58:15;;;;;;;;;8.00;6.00;;;;;21.10;45.35;102163.59;2400577;28;46356;-81
2022/07/15 06:59:26;;;;;;;;;7.00;6.00;;;;;21.09;45.60;102162.72;2398604;28;45469;-84
2022/07/15 07:00:36;;;;;;;;;6.50;5.50;;;;;21.08;45.49;102169.03;2392489;28;44708;-81
2022/07/15 07:01:47;;;;;;;;;4.75;4.00;;;;;21.08;45.35;102155.66;2390951;28;45545;-83
2022/07/15 07:02:57;;;;;;;;;6.00;5.00;;;;;21.11;45.59;102157.31;2402884;28;45223;-82
2022/07/15 07:04:08;;;;;;;;;6.50;6.00;;;;;21.12;45.60;102151.00;2410127;28;46270;-82
2022/07/15 07:05:18;;;;;;;;;7.75;6.75;;;;;21.17;45.45;102156.09;2394205;28;45401;-82
2022/07/15 07:06:29;;;;;;;;;4.25;3.50;;;;;21.21;45.53;102163.00;2399170;28;46472;-82
2022/07/15 07:07:39;;;;;;;;;7.25;6.25;;;;;21.22;45.23;102156.69;2395858;28;45690;-82
2022/07/15 07:08:52;;;;;;;;;5.50;5.50;;;;;21.27;45.30;102159.97;2391934;28;45626;-82
2022/07/15 07:10:02;;;;;;;;;5.50;4.00;;;;;21.30;45.18;102156.25;2386122;28;45464;-82
2022/07/15 07:11:13;;;;;;;;;8.25;7.25;;;;;21.35;45.79;102154.19;2389718;28;46768;-83
2022/07/15 07:12:24;;;;;;;;;4.50;4.00;;;;;21.40;45.29;102153.94;2399659;28;45439;-83
2022/07/15 07:13:34;;;;;;;;;7.25;6.00;;;;;21.46;45.16;102150.88;2396628;28;45433;-82
2022/07/15 07:14:44;;;;;;;;;7.50;6.00;;;;;21.52;45.13;102149.69;2402171;28;45174;-82
2022/07/15 07:15:55;;;;;;;;;5.25;5.00;;;;;21.54;44.82;102154.00;2387527;28;47419;-82
2022/07/15 07:17:05;;;;;;;;;5.50;4.00;;;;;21.56;45.35;102149.41;2394049;28;45264;-83
2022/07/15 07:18:16;;;;;;;;;8.50;5.00;;;;;21.59;44.64;102151.06;2398902;28;45217;-82
2022/07/15 07:19:26;;;;;;;;;4.00;2.75;;;;;21.62;44.67;102147.34;2387155;28;45031;-83
2022/07/15 07:20:37;;;;;;;;;9.00;6.25;;;;;21.63;44.11;102154.44;2388695;28;47156;-83
2022/07/15 07:21:48;;;;;;;;;4.25;3.00;;;;;21.59;44.21;102157.28;2393127;28;45440;-83
2022/07/15 07:22:58;;;;;;;;;4.50;4.00;;;;;21.60;44.21;102158.16;2393932;28;47989;-83
2022/07/15 07:24:08;;;;;;;;;4.00;4.00;;;;;21.61;44.39;102153.66;2393384;28;46316;-83
2022/07/15 07:25:19;;;;;;;;;6.00;4.00;;;;;21.64;44.47;102154.34;2396713;28;46414;-83
2022/07/15 07:26:29;;;;;;;;;6.00;4.00;;;;;21.71;44.69;102149.47;2393876;28;45384;-83
2022/07/15 07:27:39;;;;;;;;;5.50;5.50;;;;;21.80;44.32;102153.44;2397037;28;45659;-83
2022/07/15 07:28:51;;;;;;;;;4.25;4.00;;;;;21.90;44.69;102153.78;2386396;28;45560;-85
2022/07/15 07:30:04;;;;;;;;;5.00;3.25;;;;;21.98;43.95;102145.28;2383958;28;48046;-83
2022/07/15 07:31:14;;;;;;;;;7.25;5.75;;;;;22.03;44.22;102143.19;2395379;28;45337;-83
2022/07/15 07:32:25;;;;;;;;;5.00;5.00;;;;;22.06;43.58;102142.16;2388849;28;46477;-83
2022/07/15 07:33:35;;;;;;;;;4.50;4.00;;;;;22.10;43.70;102146.38;2394261;28;45262;-83
2022/07/15 07:34:46;;;;;;;;;5.75;4.00;;;;;22.14;44.00;102145.25;2386195;28;48356;-83
2022/07/15 07:35:56;;;;;;;;;4.00;4.00;;;;;22.20;43.63;102150.22;2395765;28;45440;-83
2022/07/15 07:37:06;;;;;;;;;5.00;5.00;;;;;22.25;42.96;102145.44;2399647;28;45249;-88
2022/07/15 07:38:19;;;;;;;;;6.50;4.00;;;;;22.32;43.27;102145.91;2394518;28;46127;-83
2022/07/15 07:39:29;;;;;;;;;3.50;3.50;;;;;22.36;42.86;102143.94;2387462;28;46961;-82
2022/07/15 07:40:40;;;;;;;;;4.00;4.00;;;;;22.43;42.92;102144.41;2387791;28;45548;-83
2022/07/15 07:41:53;;;;;;;;;6.00;5.00;;;;;22.51;43.24;102152.84;2395957;28;45466;-82
2022/07/15 07:43:03;;;;;;;;;6.00;5.00;;;;;22.55;42.17;102145.47;2387422;28;44861;-83
2022/07/15 07:44:13;;;;;;;;;2.75;2.75;;;;;22.57;42.45;102147.09;2389766;28;46961;-82
2022/07/15 07:45:24;;;;;;;;;4.00;4.00;;;;;22.60;42.76;102149.59;2393572;28;45395;-82
2022/07/15 07:46:35;;;;;;;;;4.00;4.00;;;;;22.64;42.30;102150.28;2394949;28;46561;-83
2022/07/15 07:47:45;;;;;;;;;2.00;2.00;;;;;22.62;41.21;102151.31;2394753;28;45589;-82
2022/07/15 07:48:56;;;;;;;;;3.75;3.75;;;;;22.61;41.21;102153.13;2394158;28;47230;-83
2022/07/15 07:50:08;;;;;;;;;4.00;4.00;;;;;22.60;42.07;102141.53;2389085;28;44886;-82
2022/07/15 07:51:18;;;;;;;;;2.50;2.50;;;;;22.62;41.38;102148.63;2389740;28;47617;-83
2022/07/15 07:52:28;;;;;;;;;4.50;3.50;;;;;22.59;41.49;102139.81;2387931;28;45507;-83
2022/07/15 07:53:39;;;;;;;;;2.50;2.50;;;;;22.57;41.41;102139.06;2389854;28;46465;-83
2022/07/15 07:54:50;;;;;;;;;4.25;2.00;;;;;22.59;41.81;102139.81;2396977;28;45306;-83
2022/07/15 07:56:00;;;;;;;;;5.00;4.00;;;;;22.60;40.69;102135.31;2396135;28;45604;-83
2022/07/15 07:57:11;;;;;;;;;4.00;4.00;;;;;22.60;40.99;102135.31;2396485;28;44814;-83
2022/07/15 07:58:21;;;;;;;;;4.00;3.00;;;;;22.59;41.62;102138.97;2397580;28;45347;-83
2022/07/15 07:59:32;;;;;;;;;5.25;2.75;;;;;22.60;41.46;102138.00;2400891;28;44763;-83
2022/07/15 08:00:43;;;;;;;;;4.75;3.25;;;;;22.61;40.59;102134.38;2401062;28;47977;-83
2022/07/15 08:01:53;;;;;;;;;3.00;3.00;;;;;22.63;40.54;102129.78;2398744;28;44844;-82
2022/07/15 08:03:03;;;;;;;;;4.75;3.50;;;;;22.63;41.40;102135.13;2397973;28;46279;-83
2022/07/15 08:04:14;;;;;;;;;4.50;4.50;;;;;22.62;39.92;102127.22;2394835;28;46874;-83
2022/07/15 08:05:25;;;;;;;;;3.50;3.00;;;;;22.59;40.63;102126.41;2396545;28;46274;-83
2022/07/15 08:06:38;;;;;;;;;1.75;1.00;;;;;22.60;40.01;102129.97;2399551;28;45223;-83
2022/07/15 08:07:48;;;;;;;;;4.00;3.25;;;;;22.58;40.41;102123.84;2395665;28;48124;-83
2022/07/15 08:08:58;;;;;;;;;4.00;4.00;;;;;22.58;39.46;102130.06;2398495;28;45526;-83
2022/07/15 08:10:10;;;;;;;;;3.00;3.00;;;;;22.57;40.10;102127.50;2402555;28;46398;-83
2022/07/15 08:11:20;;;;;;;;;2.75;2.75;;;;;22.58;40.20;102126.53;2398935;28;47297;-83
2022/07/15 08:12:31;;;;;;;;;5.25;3.25;;;;;22.60;40.36;102130.84;2398484;28;46054;-80
2022/07/15 08:13:41;;;;;;;;;4.00;3.75;;;;;22.63;40.80;102128.91;2402492;28;45337;-83
2022/07/15 08:14:54;;;;;;;;;3.00;3.00;;;;;22.67;39.63;102128.63;2399820;28;46255;-83
2022/07/15 08:16:06;;;;;;;;;3.00;3.00;;;;;22.68;39.47;102127.69;2389919;28;45543;-83
2022/07/15 08:17:16;;;;;;;;;6.00;5.00;;;;;22.68;40.02;102118.78;2394342;28;46362;-82
2022/07/15 08:18:28;;;;;;;;;4.25;4.00;;;;;22.66;39.67;102118.00;2400521;28;45163;-82
2022/07/15 08:19:38;;;;;;;;;3.00;2.50;;;;;22.64;39.69;102118.13;2400881;28;45415;-82
2022/07/15 08:20:48;;;;;;;;;6.75;3.00;;;;;22.64;39.60;102119.94;2402628;28;45476;-83
2022/07/15 08:21:59;;;;;;;;;3.50;2.75;;;;;22.60;39.56;102117.44;2388809;28;47174;-82
2022/07/15 08:23:09;;;;;;;;;3.75;3.75;;;;;22.62;39.53;102121.84;2375172;28;45614;-82
2022/07/15 08:24:19;;;;;;;;;4.25;2.50;;;;;22.62;39.45;102122.69;2384098;28;47238;-83
2022/07/15 08:25:33;;;;;;;;;3.00;3.00;;;;;22.64;39.71;102122.59;2399308;28;45476;-82
2022/07/15 08:26:43;;;;;;;;;4.00;3.00;;;;;22.66;39.16;102118.88;2391655;28;47112;-82
2022/07/15 08:27:55;;;;;;;;;2.00;2.00;;;;;22.68;40.11;102116.97;2391281;28;45303;-82
2022/07/15 08:29:05;;;;;;;;;3.00;3.00;;;;;22.72;39.22;102122.16;2394485;28;45330;-82
2022/07/15 08:30:15;;;;;;;;;3.00;2.00;;;;;22.74;38.82;102120.25;2391593;28;46186;-83
2022/07/15 08:31:26;;;;;;;;;2.00;2.00;;;;;22.74;38.82;102120.25;2396784;28;45457;-82
2022/07/15 08:32:36;;;;;;;;;5.25;3.00;;;;;22.74;38.98;102126.47;2390989;28;44863;-82
2022/07/15 08:33:47;;;;;;;;;2.00;2.00;;;;;22.73;38.77;102129.22;2395582;28;46402;-83
2022/07/15 08:34:57;;;;;;;;;3.00;3.00;;;;;22.72;38.45;102127.53;2395960;28;45285;-83
2022/07/15 08:36:08;;;;;;;;;2.50;2.50;;;;;22.71;38.28;102137.38;2390400;28;48001;-82
2022/07/15 08:37:18;;;;;;;;;3.50;3.50;;;;;22.70;39.70;102125.78;2395290;28;45314;-82
2022/07/15 08:38:30;;;;;;;;;3.75;3.00;;;;;22.76;39.55;102129.03;2396429;28;47026;-82
2022/07/15 08:39:40;;;;;;;;;7.00;2.25;;;;;22.82;39.30;102126.81;2398529;28;45749;-82
2022/07/15 08:40:50;;;;;;;;;3.50;3.50;;;;;22.88;39.28;102125.56;2402990;28;45412;-82
2022/07/15 08:42:01;;;;;;;;;4.00;4.00;;;;;22.95;39.39;102123.34;2390210;28;45470;-83
2022/07/15 08:43:11;;;;;;;;;3.00;3.00;;;;;23.02;39.91;102123.81;2390357;28;45863;-83
2022/07/15 08:44:22;;;;;;;;;2.00;2.00;;;;;23.09;39.79;102118.94;2401307;28;45334;-83
2022/07/15 08:45:34;;;;;;;;;2.00;2.00;;;;;23.16;38.87;102121.09;2398963;28;47142;-83
2022/07/15 08:46:47;;;;;;;;;3.00;2.50;;;;;23.22;38.56;102129.69;2402964;28;45280;-83
2022/07/15 08:48:01;;;;;;;;;3.00;3.00;;;;;23.24;38.69;102117.03;2391429;28;48431;-83
2022/07/15 08:49:15;;;;;;;;;1.00;1.00;;;;;23.27;39.29;102116.84;2394293;28;45317;-84
2022/07/15 08:50:27;;;;;;;;;3.00;3.00;;;;;23.29;37.67;102124.78;2396792;28;46214;-86
2022/07/15 08:51:42;;;;;;;;;4.75;4.00;;;;;23.27;37.79;102114.16;2402537;28;45221;-86
2022/07/15 08:52:53;;;;;;;;;4.75;2.25;;;;;23.26;38.28;102115.16;2391512;28;48345;-83
2022/07/15 08:54:05;;;;;;;;;2.50;2.00;;;;;23.25;38.09;102110.75;2390601;28;45473;-84
2022/07/15 08:55:15;;;;;;;;;1.75;1.75;;;;;23.28;38.89;102115.91;2393160;28;47058;-83
2022/07/15 08:56:27;;;;;;;;;4.00;2.00;;;;;23.33;38.60;102115.59;2395273;28;44685;-87
2022/07/15 08:57:37;;;;;;;;;5.25;4.00;;;;;23.37;38.65;102109.94;2395935;28;47343;-87
2022/07/15 08:58:48;;;;;;;;;2.00;2.00;;;;;23.42;38.02;102112.31;2400150;28;45412;-85
2022/07/15 08:59:58;;;;;;;;;1.00;1.00;;;;;23.46;38.25;102111.13;2402774;28;45417;-86
2022/07/15 09:01:09;;;;;;;;;5.00;3.00;;;;;23.50;38.31;102101.09;2402802;28;45348;-87
2022/07/15 09:02:19;;;;;;;;;3.00;3.00;;;;;23.57;37.75;102113.13;2395162;28;46086;-85
2022/07/15 09:03:30;;;;;;;;;3.00;2.00;;;;;23.56;37.82;102108.72;2397627;28;45318;-85
2022/07/15 09:05:17;;;;;;;;;5.00;4.00;;;;;23.62;36.55;102114.63;2396352;28;46348;-84
2022/07/15 09:06:41;;;;;;;;;4.50;3.25;;;;;23.58;37.34;102109.47;2398054;28;45610;-85
2022/07/15 09:08:05;;;;;;;;;3.00;2.00;;;;;23.53;36.93;102100.91;2391466;28;46170;-86
2022/07/15 09:09:26;;;;;;;;;3.25;2.75;;;;;23.53;36.90;102111.63;2393381;28;46078;-86
2022/07/15 09:10:53;;;;;;;;;2.00;2.00;;;;;23.52;36.87;102104.53;2385098;28;47151;-86
2022/07/15 09:12:06;;;;;;;;;2.50;2.00;;;;;23.52;37.10;102103.66;2386593;28;46073;-89
2022/07/15 09:13:30;;;;;;;;;2.75;2.75;;;;;23.51;37.10;102104.66;2387201;28;48136;-86
2022/07/15 09:14:42;;;;;;;;;6.25;3.00;;;;;23.54;37.01;102107.97;2401102;28;45495;-84
2022/07/15 09:15:55;;;;;;;;;2.25;2.00;;;;;23.59;36.82;102115.69;2404037;28;46124;-87
2022/07/15 09:17:10;;;;;;;;;3.00;3.00;;;;;23.62;37.50;102109.28;2401105;28;46087;-89
2022/07/15 09:18:24;;;;;;;;;2.00;2.00;;;;;23.65;36.76;102103.69;2398205;28;48299;-88
2022/07/15 09:20:11;;;;;;;;;2.25;2.00;;;;;23.70;36.68;102112.31;2393468;28;45179;-87
2022/07/15 09:21:25;;;;;;;;;3.25;3.25;;;;;23.73;36.83;102106.72;2390410;28;47270;-84
2022/07/15 09:22:53;;;;;;;;;2.50;2.25;;;;;23.76;37.31;102102.97;2396841;28;45235;-84
2022/07/15 09:24:17;;;;;;;;;2.00;2.00;;;;;23.79;36.26;102098.25;2398081;28;47422;-82
2022/07/15 09:25:28;;;;;;;;;2.50;2.50;;;;;23.82;35.86;102106.09;2403791;28;45488;-81
2022/07/15 09:26:38;;;;;;;;;2.50;2.00;;;;;23.86;35.87;102103.19;2389882;28;47183;-84
2022/07/15 09:27:50;;;;;;;;;4.00;4.00;;;;;23.88;36.49;102109.34;2389466;28;45916;-83
2022/07/15 09:29:02;;;;;;;;;2.50;2.50;;;;;23.88;35.24;102114.72;2402372;28;45460;-85
2022/07/15 09:33:40;;;;;;;;;1.50;1.50;;;;;23.86;35.36;102103.19;2400395;28;45596;-83
2022/07/15 09:35:03;;;;;;;;;2.00;2.00;;;;;23.83;35.29;102097.06;2394047;28;45452;-89
2022/07/15 09:36:22;;;;;;;;;1.75;1.25;;;;;23.81;35.21;102092.78;2399079;28;46007;-84
2022/07/15 09:37:32;;;;;;;;;1.00;1.00;;;;;23.80;35.25;102097.31;2401371;28;45603;-84
2022/07/15 09:38:54;;;;;;;;;2.25;2.00;;;;;23.78;34.73;102093.00;2401477;28;45263;-84
2022/07/15 09:40:05;;;;;;;;;4.00;2.25;;;;;23.75;35.46;102091.38;2396388;28;47489;-90
2022/07/15 09:41:25;;;;;;;;;2.00;2.00;;;;;23.78;35.58;102090.31;2400647;28;44850;-89
2022/07/15 09:42:35;;;;;;;;;2.00;2.00;;;;;23.79;35.58;102087.50;2401812;28;47898;-85
2022/07/15 09:43:52;;;;;;;;;3.75;3.00;;;;;23.82;35.45;102095.38;2402646;28;46034;-84
2022/07/15 09:45:19;;;;;;;;;2.00;2.00;;;;;23.86;34.97;102100.50;2400874;28;45493;-84
2022/07/15 09:46:43;;;;;;;;;2.00;2.00;;;;;23.87;34.33;102091.50;2408626;28;45341;-84
2022/07/15 09:48:13;;;;;;;;;2.50;2.00;;;;;23.87;34.18;102094.19;2395198;28;45669;-85
2022/07/15 09:49:26;;;;;;;;;3.75;2.00;;;;;23.87;34.26;102095.03;2401523;28;45357;-84
2022/07/15 09:50:38;;;;;;;;;2.00;2.00;;;;;23.88;34.43;102098.59;2397703;28;45248;-88
2022/07/15 09:51:55;;;;;;;;;2.00;2.00;;;;;23.89;34.42;102098.47;2401436;28;44787;-90
2022/07/15 09:53:13;;;;;;;;;3.00;1.50;;;;;23.91;34.75;102095.69;2390987;28;48045;-89
2022/07/15 09:54:31;;;;;;;;;1.50;1.50;;;;;23.92;34.40;102100.09;2393006;28;44840;-90
2022/07/15 09:55:41;;;;;;;;;2.50;2.00;;;;;23.96;34.80;102098.91;2391131;28;47295;-85
2022/07/15 09:56:52;;;;;;;;;2.00;2.00;;;;;23.98;34.99;102088.09;2394727;28;44745;-84
2022/07/15 09:58:07;;;;;;;;;2.25;2.25;;;;;24.03;34.45;102086.78;2389253;28;48074;-83
2022/07/15 09:59:18;;;;;;;;;2.00;2.00;;;;;24.09;34.54;102090.88;2388413;28;45531;-83
2022/07/15 10:00:29;;;;;;;;;3.00;2.25;;;;;24.15;34.18;102084.22;2398493;28;45522;-84
2022/07/15 10:01:40;;;;;;;;;1.00;1.00;;;;;24.17;34.33;102088.50;2395049;28;45357;-84
2022/07/15 10:02:51;;;;;;;;;0.00;0.00;;;;;24.22;33.42;102096.25;2397342;28;45702;-84
2022/07/15 10:04:02;;;;;;;;;1.75;1.75;;;;;24.25;33.97;102089.78;2388666;28;45452;-84
2022/07/15 10:05:13;;;;;;;;;1.75;1.75;;;;;24.30;32.62;102082.28;2389638;28;45584;-84
2022/07/15 10:06:27;;;;;;;;;1.25;1.25;;;;;24.30;33.54;102076.06;2395450;28;45514;-83
2022/07/15 10:07:39;;;;;;;;;1.00;1.00;;;;;24.30;32.95;102089.50;2387142;28;48226;-84
2022/07/15 10:08:50;;;;;;;;;2.75;2.00;;;;;24.25;32.05;102087.97;2388179;28;45539;-84
2022/07/15 10:10:02;;;;;;;;;2.00;2.00;;;;;24.23;33.53;102095.25;2393422;28;47267;-84
2022/07/15 10:11:12;;;;;;;;;2.25;2.00;;;;;24.21;32.60;102094.50;2401778;28;45246;-84
2022/07/15 10:12:27;;;;;;;;;2.00;2.00;;;;;24.22;33.08;102090.00;2402071;28;47675;-84
2022/07/15 10:14:02;;;;;;;;;1.25;1.25;;;;;24.24;32.95;102088.94;2394573;28;47372;-84
2022/07/15 10:15:32;;;;;;;;;1.50;1.50;;;;;24.27;32.67;102087.91;2400670;28;46199;-83
2022/07/15 10:17:03;;;;;;;;;2.00;1.75;;;;;24.29;31.30;102091.31;2402435;28;44712;-84
2022/07/15 10:18:32;;;;;;;;;2.00;2.00;;;;;24.31;33.22;102083.16;2389316;28;46868;-83
2022/07/15 10:20:16;;;;;;;;;2.00;1.25;;;;;24.36;32.02;102089.06;2397039;28;45489;-82
2022/07/15 10:21:44;;;;;;;;;1.00;1.00;;;;;24.39;32.11;102088.84;2390564;28;47238;-83
2022/07/15 10:23:23;;;;;;;;;1.00;1.00;;;;;24.42;31.43;102085.91;2396621;28;45217;-84
2022/07/15 10:24:56;;;;;;;;;3.00;1.00;;;;;24.42;32.31;102080.53;2395448;28;45444;-82
2022/07/15 10:26:31;;;;;;;;;1.00;1.00;;;;;24.47;31.76;102074.88;2402931;28;45166;-83
2022/07/15 10:28:05;;;;;;;;;2.00;2.00;;;;;24.49;32.28;102076.47;2401239;28;45675;-81
2022/07/15 10:29:16;;;;;;;;;1.00;1.00;;;;;24.52;32.21;102075.38;2394712;28;45290;-83
2022/07/15 10:30:28;;;;;;;;;1.50;1.50;;;;;24.54;32.02;102081.50;2398328;28;45896;-83
2022/07/15 10:31:40;;;;;;;;;0.75;0.75;;;;;24.60;32.13;102080.19;2386843;28;44739;-83
2022/07/15 10:33:02;;;;;;;;;1.00;1.00;;;;;24.70;32.13;102083.06;2392700;28;45466;-82
2022/07/15 10:34:12;;;;;;;;;1.50;1.00;;;;;24.76;31.19;102074.56;2401079;28;45221;-84
2022/07/15 10:35:45;;;;;;;;;1.50;1.50;;;;;24.89;31.25;102081.75;2389155;28;46793;-85
2022/07/15 10:36:58;;;;;;;;;1.50;1.50;;;;;24.95;31.60;102074.06;2395700;28;45372;-84
2022/07/15 10:38:23;;;;;;;;;2.50;1.00;;;;;25.06;31.61;102072.47;2397044;28;45563;-84
2022/07/15 10:39:45;;;;;;;;;1.00;0.00;;;;;25.13;31.75;102068.34;2395100;28;45472;-85
2022/07/15 10:41:06;;;;;;;;;2.00;2.00;;;;;25.20;30.28;102070.56;2395037;28;45462;-85
2022/07/15 10:42:18;;;;;;;;;1.00;1.00;;;;;25.22;31.73;102047.09;2395272;28;45094;-84
2022/07/15 10:43:43;;;;;;;;;2.00;1.00;;;;;25.27;31.49;102052.97;2396115;28;47143;-85
2022/07/15 10:45:00;;;;;;;;;1.00;1.00;;;;;25.30;30.19;102052.75;2396233;28;44890;-85
2022/07/15 10:46:16;;;;;;;;;2.00;1.00;;;;;25.31;30.40;102046.38;2398066;28;45583;-84
2022/07/15 10:47:27;;;;;;;;;1.25;1.25;;;;;25.27;30.74;102048.47;2388218;28;44845;-85
2022/07/15 10:48:37;;;;;;;;;1.50;1.50;;;;;25.26;30.26;102045.91;2389773;28;45763;-85
2022/07/15 10:49:49;;;;;;;;;1.50;1.00;;;;;25.22;29.88;102052.47;2386286;28;46226;-85
2022/07/15 10:51:00;;;;;;;;;1.75;1.00;;;;;25.16;30.66;102049.25;2391928;28;45542;-84
2022/07/15 10:52:14;;;;;;;;;1.00;1.00;;;;;25.16;30.57;102043.88;2396424;28;45524;-84
2022/07/15 10:53:27;;;;;;;;;1.00;1.00;;;;;25.21;31.06;102045.38;2397755;28;48400;-84
2022/07/15 10:54:41;;;;;;;;;2.00;1.00;;;;;25.24;30.65;102047.81;2395086;28;44877;-84
2022/07/15 10:55:52;;;;;;;;;0.00;0.00;;;;;25.27;30.48;102047.59;2389239;28;46457;-84
2022/07/15 10:57:02;;;;;;;;;1.00;1.00;;;;;25.28;30.06;102046.63;2390569;28;44810;-84
2022/07/15 10:58:16;;;;;;;;;0.75;0.75;;;;;25.32;30.47;102048.09;2396453;28;46854;-84
2022/07/15 10:59:34;;;;;;;;;1.00;1.00;;;;;25.33;29.17;102036.38;2395612;28;45258;-85
2022/07/15 11:00:46;;;;;;;;;1.25;1.25;;;;;25.33;29.81;102041.75;2401884;28;46409;-84
2022/07/15 11:01:56;;;;;;;;;1.00;1.00;;;;;25.33;30.26;102041.75;2404200;28;45269;-83
2022/07/15 11:03:12;;;;;;;;;1.00;1.00;;;;;25.35;30.52;102041.63;2402938;28;45525;-83
2022/07/15 11:04:25;;;;;;;;;1.00;1.00;;;;;25.38;30.40;102038.72;2402229;28;45298;-84
2022/07/15 11:06:00;;;;;;;;;1.00;1.00;;;;;25.37;30.26;102032.47;2403354;28;45254;-83
2022/07/15 11:07:13;;;;;;;;;2.00;2.00;;;;;25.44;30.77;102035.53;2399696;28;45608;-83
2022/07/15 11:08:36;;;;;;;;;2.50;1.75;;;;;25.48;31.03;102028.94;2399241;28;47299;-83
2022/07/15 11:09:58;;;;;;;;;1.25;1.25;;;;;25.52;31.32;102037.66;2399233;28;45239;-83
2022/07/15 11:11:14;;;;;;;;;1.00;1.00;;;;;25.55;30.56;102034.72;2390891;28;48526;-83
2022/07/15 11:12:30;;;;;;;;;1.50;1.00;;;;;25.57;30.81;102032.78;2388339;28;45490;-84
2022/07/15 11:13:46;;;;;;;;;1.75;1.50;;;;;25.59;29.45;102030.81;2402027;28;45470;-83
2022/07/15 11:15:00;;;;;;;;;1.00;1.00;;;;;25.59;28.98;102033.50;2392337;28;45194;-83
2022/07/15 11:16:12;;;;;;;;;1.50;1.50;;;;;25.59;28.73;102035.34;2401188;28;45522;-83
2022/07/15 11:17:25;;;;;;;;;1.75;1.00;;;;;25.55;29.29;102032.03;2400250;28;45532;-84